createdAt,value
2019-03-28T00:01:16.603Z,11.30
2019-03-28T00:03:47.706Z,11.30
2019-03-28T00:06:19.347Z,11.30
2019-03-28T00:08:49.533Z,11.20
2019-03-28T00:11:19.654Z,11.40
2019-03-28T00:13:51.136Z,11.40
2019-03-28T00:16:23.236Z,11.40
2019-03-28T00:18:57.378Z,11.40
2019-03-28T00:21:26.612Z,11.50
2019-03-28T00:24:20.317Z,11.50
2019-03-28T00:26:51.540Z,11.50
2019-03-28T00:29:21.755Z,11.60
2019-03-28T00:31:51.709Z,11.60
2019-03-28T00:34:21.727Z,11.60
2019-03-28T00:36:52.926Z,11.60
2019-03-28T00:39:23.405Z,11.60
2019-03-28T00:41:55.205Z,11.60
2019-03-28T00:44:25.259Z,11.60
2019-03-28T00:46:55.693Z,11.60
2019-03-28T00:49:26.015Z,11.60
2019-03-28T00:51:56.240Z,11.60
2019-03-28T00:54:26.363Z,11.60
2019-03-28T00:56:58.214Z,11.50
2019-03-28T00:59:28.361Z,11.50
2019-03-28T01:01:59.647Z,11.50
2019-03-28T01:04:30.204Z,11.40
2019-03-28T01:07:00.324Z,11.40
2019-03-28T01:09:31.322Z,11.40
2019-03-28T01:12:08.551Z,11.40
2019-03-28T01:14:39.082Z,11.30
2019-03-28T01:17:09.404Z,11.30
2019-03-28T01:19:41.471Z,11.30
2019-03-28T01:22:11.897Z,11.30
2019-03-28T01:24:42.324Z,11.30
2019-03-28T01:27:12.751Z,11.20
2019-03-28T01:29:44.816Z,11.20
2019-03-28T01:32:16.565Z,11.10
2019-03-28T01:34:48.538Z,11.10
2019-03-28T01:37:18.967Z,10.90
2019-03-28T01:39:49.479Z,10.80
2019-03-28T01:42:19.820Z,10.80
2019-03-28T01:44:51.882Z,10.90
2019-03-28T01:47:23.539Z,10.80
2019-03-28T01:49:55.411Z,10.90
2019-03-28T01:52:25.825Z,10.90
2019-03-28T01:54:56.152Z,10.90
2019-03-28T01:57:26.576Z,10.90
2019-03-28T01:59:56.901Z,10.90
2019-03-28T02:02:27.430Z,10.90
2019-03-28T02:05:00.288Z,10.90
2019-03-28T02:07:32.081Z,10.90
2019-03-28T02:10:02.499Z,10.80
2019-03-28T02:12:34.668Z,10.90
2019-03-28T02:15:08.066Z,10.80
2019-03-28T02:17:37.881Z,10.80
2019-03-28T02:20:10.326Z,10.90
2019-03-28T02:22:40.981Z,10.80
2019-03-28T02:25:14.589Z,10.70
2019-03-28T02:27:45.113Z,10.70
2019-03-28T02:30:17.281Z,10.70
2019-03-28T02:32:47.809Z,10.70
2019-03-28T02:35:19.875Z,10.60
2019-03-28T02:37:50.404Z,10.50
2019-03-28T02:40:20.941Z,10.50
2019-03-28T02:42:53.675Z,10.50
2019-03-28T02:45:26.189Z,10.20
2019-03-28T02:47:56.616Z,10.00
2019-03-28T02:50:28.393Z,10.10
2019-03-28T02:53:00.997Z,10.10
2019-03-28T02:55:33.015Z,10.10
2019-03-28T02:58:03.545Z,10.00
2019-03-28T03:00:36.840Z,10.10
2019-03-28T03:03:09.014Z,9.90
2019-03-28T03:05:39.332Z,10.00
2019-03-28T03:08:09.656Z,9.90
2019-03-28T03:10:40.185Z,9.90
2019-03-28T03:13:10.611Z,9.80
2019-03-28T03:15:40.935Z,9.80
2019-03-28T03:18:11.466Z,9.70
2019-03-28T03:20:41.792Z,9.70
2019-03-28T03:23:12.250Z,9.90
2019-03-28T03:25:42.852Z,10.00
2019-03-28T03:28:13.175Z,10.00
2019-03-28T03:30:43.496Z,10.00
2019-03-28T03:33:13.825Z,10.10
2019-03-28T03:35:44.252Z,10.20
2019-03-28T03:38:14.776Z,10.20
2019-03-28T03:40:45.206Z,10.20
2019-03-28T03:43:15.936Z,10.20
2019-03-28T03:45:46.364Z,10.20
2019-03-28T03:48:18.438Z,10.20
2019-03-28T03:50:48.980Z,10.20
2019-03-28T03:53:19.487Z,10.20
2019-03-28T03:55:51.448Z,10.20
2019-03-28T03:58:21.774Z,10.20
2019-03-28T04:00:52.201Z,10.20
2019-03-28T04:03:22.628Z,10.30
2019-03-28T04:05:54.692Z,10.30
2019-03-28T04:08:27.011Z,10.30
2019-03-28T04:10:58.631Z,10.20
2019-03-28T04:13:32.429Z,10.20
2019-03-28T04:16:15.958Z,10.20
2019-03-28T04:18:46.180Z,10.30
2019-03-28T04:21:17.588Z,10.30
2019-03-28T04:23:48.263Z,10.20
2019-03-28T04:26:18.587Z,10.30
2019-03-28T04:28:49.027Z,10.20
2019-03-28T04:31:19.544Z,10.20
2019-03-28T04:33:50.794Z,10.20
2019-03-28T04:36:21.319Z,10.10
2019-03-28T04:38:53.382Z,10.20
2019-03-28T04:41:26.063Z,10.20
2019-03-28T04:44:13.794Z,10.10
2019-03-28T04:46:44.220Z,10.20
2019-03-28T04:49:15.803Z,10.10
2019-03-28T04:51:46.406Z,10.10
2019-03-28T04:54:17.037Z,10.00
2019-03-28T04:56:47.464Z,9.90
2019-03-28T04:59:18.813Z,9.90
2019-03-28T05:02:02.664Z,10.00
2019-03-28T05:04:41.328Z,10.00
2019-03-28T05:07:13.899Z,10.00
2019-03-28T05:09:44.539Z,10.00
2019-03-28T05:12:25.416Z,10.10
2019-03-28T05:14:56.750Z,10.10
2019-03-28T05:17:28.318Z,10.10
2019-03-28T05:19:58.425Z,10.00
2019-03-28T05:22:30.287Z,10.00
2019-03-28T05:25:04.635Z,10.00
2019-03-28T05:27:34.857Z,10.00
2019-03-28T05:30:08.814Z,10.00
2019-03-28T05:32:39.090Z,10.10
2019-03-28T05:35:10.433Z,10.10
2019-03-28T05:37:40.556Z,9.90
2019-03-28T05:40:11.071Z,10.00
2019-03-28T05:42:41.293Z,10.00
2019-03-28T05:45:11.723Z,10.00
2019-03-28T05:47:42.198Z,10.00
2019-03-28T05:50:22.216Z,10.00
2019-03-28T05:52:52.279Z,10.00
2019-03-28T05:55:22.779Z,10.00
2019-03-28T05:57:52.923Z,10.00
2019-03-28T06:00:24.830Z,10.10
2019-03-28T06:02:55.091Z,10.20
2019-03-28T06:05:26.330Z,10.30
2019-03-28T06:07:56.630Z,10.30
2019-03-28T06:10:26.706Z,10.30
2019-03-28T06:12:58.959Z,10.30
2019-03-28T06:15:31.585Z,10.50
2019-03-28T06:18:02.759Z,10.60
2019-03-28T06:20:32.910Z,10.60
2019-03-28T06:23:04.426Z,10.70
2019-03-28T06:25:35.104Z,10.70
2019-03-28T06:28:05.406Z,10.80
2019-03-28T06:30:38.007Z,10.90
2019-03-28T06:33:08.585Z,10.90
2019-03-28T06:35:39.064Z,10.90
2019-03-28T06:38:12.054Z,10.90
2019-03-28T06:40:42.288Z,11.00
2019-03-28T06:43:12.700Z,11.00
2019-03-28T06:45:42.807Z,11.10
2019-03-28T06:48:12.881Z,11.20
2019-03-28T06:50:42.871Z,11.20
2019-03-28T06:53:13.118Z,11.30
2019-03-28T06:55:44.733Z,11.40
2019-03-28T06:58:16.283Z,11.60
2019-03-28T07:00:46.473Z,11.70
2019-03-28T07:03:17.894Z,11.90
2019-03-28T07:05:48.393Z,12.00
2019-03-28T07:08:18.501Z,12.20
2019-03-28T07:10:49.238Z,12.30
2019-03-28T07:13:19.923Z,12.50
2019-03-28T07:15:50.566Z,12.50
2019-03-28T07:18:20.885Z,12.50
2019-03-28T07:20:51.191Z,12.50
2019-03-28T07:23:21.818Z,12.60
2019-03-28T07:25:52.451Z,12.60
2019-03-28T07:28:22.855Z,12.60
2019-03-28T07:30:53.136Z,12.60
2019-03-28T07:33:23.335Z,12.60
2019-03-28T07:35:54.875Z,12.70
2019-03-28T07:38:25.349Z,12.80
2019-03-28T07:40:55.546Z,12.90
2019-03-28T07:43:25.812Z,12.90
2019-03-28T07:45:56.023Z,12.90
2019-03-28T07:48:26.114Z,13.00
2019-03-28T07:50:56.238Z,13.10
2019-03-28T07:53:26.282Z,13.10
2019-03-28T07:55:57.878Z,13.20
2019-03-28T07:58:28.083Z,13.20
2019-03-28T08:00:58.170Z,13.30
2019-03-28T08:03:30.068Z,13.40
2019-03-28T08:06:00.113Z,13.40
2019-03-28T08:08:38.659Z,13.40
2019-03-28T08:11:02.164Z,13.40
2019-03-28T08:13:32.432Z,13.40
2019-03-28T08:16:02.590Z,13.60
2019-03-28T08:18:32.830Z,13.70
2019-03-28T08:21:03.662Z,13.80
2019-03-28T08:23:35.262Z,13.80
2019-03-28T08:26:05.459Z,14.00
2019-03-28T08:28:35.666Z,14.00
2019-03-28T08:31:05.780Z,14.20
2019-03-28T08:33:38.307Z,14.30
2019-03-28T08:36:08.717Z,14.30
2019-03-28T08:38:42.529Z,14.30
2019-03-28T08:41:12.743Z,14.20
2019-03-28T08:43:42.952Z,14.30
2019-03-28T08:46:13.096Z,14.40
2019-03-28T08:48:43.533Z,14.70
2019-03-28T08:51:13.633Z,14.90
2019-03-28T08:53:44.015Z,14.80
2019-03-28T08:56:14.083Z,14.70
2019-03-28T08:58:49.712Z,14.70
2019-03-28T09:01:22.271Z,14.60
2019-03-28T09:03:52.420Z,14.70
2019-03-28T09:06:22.608Z,14.90
2019-03-28T09:08:52.904Z,15.10
2019-03-28T09:11:23.054Z,15.30
2019-03-28T09:13:53.167Z,15.50
2019-03-28T09:16:24.317Z,15.60
2019-03-28T09:19:02.359Z,15.80
2019-03-28T09:21:34.149Z,15.70
2019-03-28T09:24:04.774Z,16.00
2019-03-28T09:26:35.921Z,16.10
2019-03-28T09:29:06.128Z,16.20
2019-03-28T09:31:37.077Z,16.20
2019-03-28T09:34:08.867Z,16.30
2019-03-28T09:36:38.922Z,16.30
2019-03-28T09:39:11.878Z,16.50
2019-03-28T09:41:42.079Z,16.70
2019-03-28T09:44:12.292Z,16.70
2019-03-28T09:46:42.718Z,16.70
2019-03-28T09:49:14.338Z,16.60
2019-03-28T09:51:44.531Z,16.50
2019-03-28T09:54:14.598Z,16.50
2019-03-28T09:56:44.685Z,16.70
2019-03-28T09:59:15.113Z,16.70
2019-03-28T10:01:45.236Z,16.60
2019-03-28T10:04:16.793Z,16.60
2019-03-28T10:06:52.537Z,16.70
2019-03-28T10:09:22.976Z,16.80
2019-03-28T10:11:53.202Z,16.90
2019-03-28T10:14:23.295Z,16.60
2019-03-28T10:16:53.390Z,16.30
2019-03-28T10:19:23.965Z,16.30
2019-03-28T10:21:58.131Z,16.40
2019-03-28T10:24:28.280Z,16.80
2019-03-28T10:26:58.418Z,17.00
2019-03-28T10:29:28.478Z,17.10
2019-03-28T10:31:58.544Z,17.10
2019-03-28T10:34:28.754Z,17.40
2019-03-28T10:37:01.620Z,17.50
2019-03-28T10:39:33.471Z,17.70
2019-03-28T10:42:05.097Z,17.80
2019-03-28T10:44:35.227Z,18.10
2019-03-28T10:47:05.422Z,18.10
2019-03-28T10:49:36.554Z,18.10
2019-03-28T10:52:06.763Z,18.20
2019-03-28T10:54:38.798Z,18.40
2019-03-28T10:57:15.500Z,18.30
2019-03-28T10:59:41.591Z,18.60
2019-03-28T11:02:12.581Z,19.10
2019-03-28T11:04:42.698Z,19.30
2019-03-28T11:07:14.344Z,19.40
2019-03-28T11:09:44.359Z,19.60
2019-03-28T11:12:14.438Z,19.70
2019-03-28T11:14:46.254Z,19.60
2019-03-28T11:17:18.641Z,19.90
2019-03-28T11:19:48.695Z,20.10
2019-03-28T11:22:18.832Z,20.50
2019-03-28T11:24:48.983Z,20.40
2019-03-28T11:27:19.112Z,20.80
2019-03-28T11:29:49.234Z,21.00
2019-03-28T11:32:19.400Z,21.40
2019-03-28T11:34:49.527Z,21.10
2019-03-28T11:37:25.938Z,21.30
2019-03-28T11:39:51.665Z,21.30
2019-03-28T11:42:22.402Z,21.50
2019-03-28T11:44:52.571Z,21.60
2019-03-28T11:47:23.959Z,21.80
2019-03-28T11:49:56.705Z,21.60
2019-03-28T11:52:28.718Z,21.20
2019-03-28T11:54:59.101Z,21.10
2019-03-28T11:57:29.167Z,20.80
2019-03-28T12:00:01.472Z,21.40
2019-03-28T12:02:32.757Z,21.00
2019-03-28T12:05:04.588Z,20.80
2019-03-28T12:07:34.575Z,21.20
2019-03-28T12:10:07.714Z,21.50
2019-03-28T12:12:39.455Z,21.50
2019-03-28T12:15:11.066Z,22.00
2019-03-28T12:17:42.843Z,22.20
2019-03-28T12:20:13.963Z,22.10
2019-03-28T12:22:45.755Z,22.60
2019-03-28T12:25:16.056Z,23.10
2019-03-28T12:27:46.407Z,22.20
2019-03-28T12:30:17.979Z,22.60
2019-03-28T12:32:48.711Z,22.70
2019-03-28T12:35:18.915Z,22.50
2019-03-28T12:37:50.115Z,22.20
2019-03-28T12:40:20.259Z,22.70
2019-03-28T12:42:50.520Z,22.80
2019-03-28T12:45:23.077Z,22.70
2019-03-28T12:47:53.338Z,22.30
2019-03-28T12:50:23.392Z,22.70
2019-03-28T12:52:53.556Z,23.30
2019-03-28T12:55:23.616Z,23.80
2019-03-28T12:57:53.831Z,24.00
2019-03-28T13:00:33.155Z,23.80
2019-03-28T13:03:03.301Z,24.00
2019-03-28T13:05:34.863Z,24.20
2019-03-28T13:08:05.855Z,24.10
2019-03-28T13:10:36.403Z,23.60
2019-03-28T13:13:08.689Z,22.90
2019-03-28T13:15:39.555Z,22.70
2019-03-28T13:18:09.945Z,22.60
2019-03-28T13:23:30.557Z,22.10
2019-03-28T13:26:00.691Z,22.20
2019-03-28T13:28:30.904Z,22.20
2019-03-28T13:31:00.989Z,22.00
2019-03-28T13:33:31.212Z,21.80
2019-03-28T13:36:01.375Z,21.80
2019-03-28T13:38:31.479Z,21.80
2019-03-28T13:41:03.971Z,22.00
2019-03-28T13:43:34.130Z,22.00
2019-03-28T13:46:06.618Z,21.70
2019-03-28T13:48:37.076Z,21.40
2019-03-28T13:51:07.310Z,21.10
2019-03-28T13:53:39.836Z,20.80
2019-03-28T13:56:09.112Z,20.80
2019-03-28T13:58:42.015Z,20.80
2019-03-28T14:01:12.090Z,20.90
2019-03-28T14:03:42.243Z,20.70
2019-03-28T14:06:14.692Z,21.00
2019-03-28T14:08:46.391Z,20.70
2019-03-28T14:11:18.142Z,20.80
2019-03-28T14:13:56.245Z,20.50
2019-03-28T14:16:28.108Z,20.30
2019-03-28T14:18:58.927Z,20.40
2019-03-28T14:21:28.834Z,20.40
2019-03-28T14:23:59.026Z,20.30
2019-03-28T14:26:29.227Z,20.00
2019-03-28T14:28:59.400Z,19.90
2019-03-28T14:31:29.497Z,19.90
2019-03-28T14:33:59.618Z,19.80
2019-03-28T14:36:29.775Z,19.70
2019-03-28T14:38:59.827Z,19.80
2019-03-28T14:41:31.446Z,19.90
2019-03-28T14:44:02.461Z,19.90
2019-03-28T14:46:32.816Z,19.90
2019-03-28T14:49:03.007Z,19.70
2019-03-28T14:51:33.119Z,19.80
2019-03-28T14:54:04.267Z,19.90
2019-03-28T14:56:34.806Z,19.90
2019-03-28T14:59:05.132Z,19.80
2019-03-28T15:01:35.186Z,19.50
2019-03-28T15:04:05.310Z,19.50
2019-03-28T15:06:35.523Z,19.60
2019-03-28T15:09:07.804Z,19.70
2019-03-28T15:11:38.014Z,19.30
2019-03-28T15:14:08.255Z,19.50
2019-03-28T15:16:40.232Z,19.40
2019-03-28T15:19:10.293Z,19.50
2019-03-28T15:21:44.996Z,19.50
2019-03-28T15:24:14.229Z,19.50
2019-03-28T15:26:45.192Z,19.50
2019-03-28T15:29:15.345Z,19.50
2019-03-28T15:31:45.487Z,19.30
2019-03-28T15:34:15.879Z,19.20
2019-03-28T15:36:46.024Z,18.80
2019-03-28T15:39:16.084Z,18.70
2019-03-28T15:41:46.294Z,18.60
2019-03-28T15:44:18.141Z,18.50
2019-03-28T15:46:48.284Z,18.70
2019-03-28T15:49:18.336Z,18.80
2019-03-28T15:51:48.644Z,18.80
2019-03-28T15:54:18.743Z,18.90
2019-03-28T15:56:48.753Z,18.90
2019-03-28T15:59:18.908Z,18.90
2019-03-28T16:01:50.475Z,18.80
2019-03-28T16:04:24.822Z,18.40
2019-03-28T16:06:54.410Z,18.10
2019-03-28T16:09:24.609Z,18.00
2019-03-28T16:12:02.558Z,18.00
2019-03-28T16:14:27.502Z,18.10
2019-03-28T16:16:57.702Z,18.00
2019-03-28T16:19:27.773Z,17.90
2019-03-28T16:22:04.175Z,18.00
2019-03-28T16:24:33.820Z,17.90
2019-03-28T16:27:04.028Z,17.80
2019-03-28T16:29:34.107Z,17.80
2019-03-28T16:32:04.331Z,17.90
2019-03-28T16:34:34.535Z,17.90
2019-03-28T16:37:08.057Z,17.80
2019-03-28T16:39:39.080Z,17.70
2019-03-28T16:42:10.206Z,17.70
2019-03-28T16:44:40.342Z,17.70
2019-03-28T16:47:17.598Z,17.70
2019-03-28T16:49:47.757Z,17.70
2019-03-28T16:52:30.489Z,17.70
2019-03-28T16:55:01.264Z,17.60
2019-03-28T16:57:34.050Z,17.60
2019-03-28T17:00:09.913Z,17.50
2019-03-28T17:02:41.452Z,17.40
2019-03-28T17:05:11.777Z,17.40
2019-03-28T17:07:44.746Z,17.30
2019-03-28T17:10:34.758Z,17.20
2019-03-28T17:13:05.466Z,17.20
2019-03-28T17:15:36.011Z,17.20
2019-03-28T17:18:08.077Z,17.20
2019-03-28T17:20:38.402Z,17.20
2019-03-28T17:23:08.828Z,17.10
2019-03-28T17:25:39.152Z,17.10
2019-03-28T17:28:09.579Z,17.00
2019-03-28T17:30:39.904Z,16.90
2019-03-28T17:33:10.332Z,16.90
2019-03-28T17:35:59.394Z,16.90
2019-03-28T17:38:29.722Z,16.70
2019-03-28T17:41:00.146Z,16.60
2019-03-28T17:43:30.476Z,16.50
2019-03-28T17:46:00.897Z,16.50
2019-03-28T17:48:31.342Z,16.30
2019-03-28T17:51:02.057Z,16.20
2019-03-28T17:53:32.587Z,16.10
2019-03-28T17:56:03.024Z,16.10
2019-03-28T17:58:36.412Z,16.00
2019-03-28T18:01:07.450Z,16.10
2019-03-28T18:03:37.878Z,16.00
2019-03-28T18:06:08.841Z,16.00
2019-03-28T18:08:41.272Z,15.90
2019-03-28T18:11:14.584Z,15.90
2019-03-28T18:13:49.210Z,15.80
2019-03-28T18:16:19.636Z,15.70
2019-03-28T18:18:50.375Z,15.60
2019-03-28T18:21:24.688Z,15.60
2019-03-28T18:23:55.115Z,15.60
2019-03-28T18:26:25.750Z,15.50
2019-03-28T18:28:56.379Z,15.40
2019-03-28T18:31:26.805Z,15.40
2019-03-28T18:33:57.334Z,15.30
2019-03-28T18:36:27.761Z,15.30
2019-03-28T18:38:58.084Z,15.30
2019-03-28T18:41:28.922Z,15.10
2019-03-28T18:43:59.348Z,15.20
2019-03-28T18:46:29.775Z,15.20
2019-03-28T18:49:01.226Z,15.10
2019-03-28T18:51:31.743Z,14.90
2019-03-28T18:54:14.801Z,14.90
2019-03-28T18:56:49.237Z,14.80
2019-03-28T18:59:29.353Z,14.70
2019-03-28T19:02:01.321Z,14.70
2019-03-28T19:04:31.843Z,14.40
2019-03-28T19:07:02.783Z,14.30
2019-03-28T19:09:33.111Z,14.20
2019-03-28T19:12:06.812Z,14.10
2019-03-28T19:14:46.304Z,14.00
2019-03-28T19:17:18.322Z,13.90
2019-03-28T19:19:48.904Z,13.90
2019-03-28T19:22:19.305Z,14.00
2019-03-28T19:24:49.852Z,14.10
2019-03-28T19:27:20.264Z,14.30
2019-03-28T19:29:50.807Z,14.40
2019-03-28T19:32:24.476Z,14.50
2019-03-28T19:34:55.347Z,14.60
2019-03-28T19:37:26.220Z,14.60
2019-03-28T19:39:57.522Z,14.60
2019-03-28T19:42:27.768Z,14.50
2019-03-28T19:44:58.008Z,14.40
2019-03-28T19:47:28.667Z,14.30
2019-03-28T19:49:59.579Z,14.00
2019-03-28T19:52:30.316Z,13.70
2019-03-28T19:55:02.096Z,13.60
2019-03-28T19:57:32.560Z,13.60
2019-03-28T20:00:04.680Z,13.80
2019-03-28T20:02:35.814Z,13.90
2019-03-28T20:05:07.484Z,13.90
2019-03-28T20:07:37.604Z,13.90
2019-03-28T20:10:16.287Z,13.90
2019-03-28T20:12:40.086Z,13.80
2019-03-28T20:15:10.698Z,13.90
2019-03-28T20:17:41.017Z,13.80
2019-03-28T20:20:13.035Z,13.80
2019-03-28T20:22:45.013Z,13.70
2019-03-28T20:25:15.313Z,13.70
2019-03-28T20:27:45.911Z,13.60
2019-03-28T20:30:16.719Z,13.50
2019-03-28T20:32:47.018Z,13.50
2019-03-28T20:35:17.276Z,13.30
2019-03-28T20:37:47.577Z,13.20
2019-03-28T20:40:18.211Z,13.00
2019-03-28T20:42:48.565Z,12.70
2019-03-28T20:45:22.053Z,12.50
2019-03-28T20:47:53.918Z,12.30
2019-03-28T20:50:28.046Z,12.30
2019-03-28T20:53:01.564Z,12.40
2019-03-28T20:55:31.743Z,12.20
2019-03-28T20:58:02.820Z,12.30
2019-03-28T21:00:43.232Z,12.20
2019-03-28T21:03:15.030Z,12.00
2019-03-28T21:05:50.273Z,11.90
2019-03-28T21:08:20.589Z,11.90
2019-03-28T21:10:53.546Z,11.70
2019-03-28T21:13:25.024Z,11.80
2019-03-28T21:15:58.150Z,11.80
2019-03-28T21:18:40.941Z,11.60
2019-03-28T21:21:11.339Z,11.60
2019-03-28T21:23:41.699Z,11.80
2019-03-28T21:26:12.937Z,11.70
2019-03-28T21:28:47.513Z,11.70
2019-03-28T21:31:15.773Z,11.80
2019-03-28T21:33:46.176Z,11.60
2019-03-28T21:36:28.996Z,11.40
2019-03-28T21:38:49.467Z,11.30
2019-03-28T21:41:22.071Z,11.10
2019-03-28T21:43:52.267Z,11.20
2019-03-28T21:46:22.719Z,11.20
2019-03-28T21:48:53.273Z,11.30
2019-03-28T21:51:23.517Z,11.20
2019-03-28T21:53:56.673Z,11.20
2019-03-28T21:56:29.155Z,10.90
2019-03-28T21:59:05.137Z,11.00
2019-03-28T22:01:35.541Z,11.00
2019-03-28T22:04:06.178Z,10.90
2019-03-28T22:06:42.748Z,11.00
2019-03-28T22:09:10.102Z,11.10
2019-03-28T22:11:40.599Z,11.00
2019-03-28T22:14:10.622Z,11.00
2019-03-28T22:16:43.659Z,11.10
2019-03-28T22:19:15.816Z,11.20
2019-03-28T22:21:46.948Z,11.30
2019-03-28T22:24:16.984Z,11.30
2019-03-28T22:26:47.076Z,11.20
2019-03-28T22:29:17.305Z,11.00
2019-03-28T22:31:49.018Z,11.00
2019-03-28T22:34:19.114Z,10.80
2019-03-28T22:36:57.332Z,10.80
2019-03-28T22:39:21.517Z,10.70
2019-03-28T22:41:51.706Z,10.70
2019-03-28T22:44:22.245Z,10.70
2019-03-28T22:46:52.372Z,10.70
2019-03-28T22:49:22.510Z,10.80
2019-03-28T22:51:52.682Z,10.70
2019-03-28T22:54:23.145Z,10.50
2019-03-28T22:56:53.307Z,10.50
2019-03-28T22:59:23.411Z,10.50
2019-03-28T23:01:54.771Z,10.50
2019-03-28T23:04:24.992Z,10.60
2019-03-28T23:07:09.990Z,10.60
2019-03-28T23:09:28.101Z,10.50
2019-03-28T23:11:58.294Z,10.40
2019-03-28T23:14:28.662Z,10.60
2019-03-28T23:16:58.718Z,10.70
2019-03-28T23:19:31.961Z,10.90
2019-03-28T23:22:01.504Z,10.70
2019-03-28T23:24:34.363Z,10.60
2019-03-28T23:27:05.003Z,10.60
2019-03-28T23:29:35.312Z,10.80
2019-03-28T23:32:05.181Z,10.80
2019-03-28T23:34:35.389Z,10.80
2019-03-28T23:37:05.659Z,10.70
2019-03-28T23:39:35.815Z,10.70
2019-03-28T23:42:06.955Z,10.60
2019-03-28T23:44:39.040Z,10.50
2019-03-28T23:47:10.282Z,10.40
2019-03-28T23:49:40.875Z,10.40
2019-03-28T23:52:10.936Z,10.50
2019-03-28T23:54:40.977Z,10.60
2019-03-28T23:57:11.115Z,10.60
2019-03-28T23:59:44.739Z,10.70
